Аэропорт: Домодедово. Москва

ICAO: UUDD

METAR:
2019-07-23 18:30:00
UUDD 231830Z 05003MPS 9999 SCT006 BKN033CB 18/16 Q1011 R88/290042 NOSIG
METAR:
2019-07-23 16:55:00
TAF UUDD 231655Z 2318/2424 08003MPS 8000 BKN011 TX23/2411Z TN15/2401Z TEMPO 2318/2321 08008G13MPS 3100 -TSRA FEW005 BKN020CB TEMPO 2321/2409 2100 -RA BR FEW002 OVC004 TEMPO 2409/2420 11008G13MPS 3100 -TSRA FEW006 BKN025CB